Time;durP1;ratioP1;P1;durP2;ratioP2;P2;SDS_P1;SDS_P2;PMS_P1;PMS_P2;Temp;Humidity;BMP_temperature;BMP_pressure;BME280_temperature;BME280_humidity;BME280_pressure;Samples;Min_cycle;Max_cycle;Signal;HPM_P1;HPM_P2
2022/11/15 05:00:43;;;;;;;1999.90;999.90;;;8.80;99.90;;;;;;5899002;23;20062;-79
2022/11/15 05:05:53;;;;;;;1999.90;999.90;;;8.80;99.90;;;;;;5027610;28;20030;-80
2022/11/15 05:08:19;;;;;;;1999.90;999.90;;;8.90;99.90;;;;;;5025665;28;20038;-79
2022/11/15 05:10:45;;;;;;;1999.90;999.90;;;8.80;99.90;;;;;;5025369;28;20031;-78
2022/11/15 05:13:10;;;;;;;1999.90;999.90;;;8.80;99.90;;;;;;5035685;28;20033;-79
2022/11/15 05:15:36;;;;;;;1999.90;999.90;;;8.80;99.90;;;;;;5033869;28;20121;-79
2022/11/15 05:18:01;;;;;;;1999.90;999.90;;;8.80;99.90;;;;;;5023932;28;20472;-79
2022/11/15 05:20:27;;;;;;;1999.90;999.90;;;8.80;99.90;;;;;;5023715;28;20046;-79
2022/11/15 05:22:55;;;;;;;1999.90;999.90;;;8.80;99.90;;;;;;5023319;28;20608;-79
2022/11/15 05:25:21;;;;;;;1999.90;999.90;;;8.80;99.90;;;;;;5021574;28;20027;-79
2022/11/15 05:27:47;;;;;;;1999.90;999.90;;;8.80;99.90;;;;;;5022068;28;20137;-79
2022/11/15 05:30:12;;;;;;;1999.90;999.90;;;8.70;99.90;;;;;;5020306;28;20121;-79
2022/11/15 05:32:38;;;;;;;1999.90;999.90;;;8.60;99.90;;;;;;5020191;28;20061;-79
2022/11/15 05:35:06;;;;;;;1999.90;999.90;;;8.50;99.90;;;;;;5020010;28;20408;-79
2022/11/15 05:37:32;;;;;;;1999.90;999.90;;;8.40;99.90;;;;;;5022873;28;20038;-79
2022/11/15 05:39:58;;;;;;;1999.90;999.90;;;8.20;99.90;;;;;;5022869;28;20030;-79
2022/11/15 05:42:26;;;;;;;1999.90;999.90;;;8.10;99.90;;;;;;5020779;28;20026;-79
2022/11/15 05:44:52;;;;;;;1999.90;999.90;;;7.90;99.90;;;;;;5020605;28;20050;-79
2022/11/15 05:47:24;;;;;;;1999.90;999.90;;;7.80;99.90;;;;;;5021098;28;20403;-79
2022/11/15 05:49:52;;;;;;;1999.90;999.90;;;7.60;99.90;;;;;;5020130;28;20042;-79
2022/11/15 05:52:21;;;;;;;1999.90;999.90;;;7.40;99.90;;;;;;5019959;28;20126;-79
2022/11/15 05:54:47;;;;;;;1999.90;999.90;;;7.30;99.90;;;;;;5019915;28;20034;-79
2022/11/15 05:57:13;;;;;;;1999.90;999.90;;;7.20;99.90;;;;;;5022245;28;20057;-79
2022/11/15 05:59:40;;;;;;;1999.90;999.90;;;7.20;99.90;;;;;;5021042;28;20045;-79
2022/11/15 06:02:05;;;;;;;1999.90;999.90;;;7.00;99.90;;;;;;5021813;28;20035;-79
2022/11/15 06:04:31;;;;;;;1999.90;999.90;;;6.80;99.90;;;;;;5022686;28;20451;-79
2022/11/15 06:06:58;;;;;;;1999.90;999.90;;;6.70;99.90;;;;;;5022058;28;20043;-79
2022/11/15 06:09:24;;;;;;;1999.90;999.90;;;6.60;99.90;;;;;;5022674;28;20030;-79
2022/11/15 06:11:49;;;;;;;1999.90;999.90;;;6.60;99.90;;;;;;5021851;28;20034;-79
2022/11/15 06:14:15;;;;;;;1999.90;999.90;;;6.60;99.90;;;;;;5022079;28;20046;-79
2022/11/15 06:16:41;;;;;;;1999.90;999.90;;;6.60;99.90;;;;;;5021035;28;20034;-79
2022/11/15 06:19:07;;;;;;;1999.90;999.90;;;6.60;99.90;;;;;;5020114;28;20058;-79
2022/11/15 06:21:32;;;;;;;1999.90;999.90;;;6.60;99.90;;;;;;5020117;28;20049;-79
2022/11/15 06:23:58;;;;;;;1999.90;999.90;;;6.60;99.90;;;;;;5022036;28;20037;-79
2022/11/15 06:26:24;;;;;;;1999.90;999.90;;;6.50;99.90;;;;;;5021694;28;20034;-79
2022/11/15 06:28:49;;;;;;;1999.90;999.90;;;6.50;99.90;;;;;;5026909;28;20030;-79
2022/11/15 06:31:15;;;;;;;1999.90;999.90;;;6.40;99.90;;;;;;5027176;28;20042;-79
2022/11/15 06:33:41;;;;;;;1999.90;999.90;;;6.50;99.90;;;;;;5024953;28;20042;-79
2022/11/15 06:36:13;;;;;;;1999.90;999.90;;;6.50;99.90;;;;;;5031776;28;20023;-79
2022/11/15 06:38:39;;;;;;;1999.90;999.90;;;6.50;99.90;;;;;;5033876;28;20018;-79
2022/11/15 06:41:07;;;;;;;1999.90;999.90;;;6.50;99.90;;;;;;5034920;28;20018;-79
2022/11/15 06:43:33;;;;;;;1999.90;999.90;;;6.50;99.90;;;;;;5033495;28;20086;-79
2022/11/15 06:45:59;;;;;;;1999.90;999.90;;;6.40;99.90;;;;;;5022331;28;20034;-79
2022/11/15 06:48:26;;;;;;;1999.90;999.90;;;6.50;99.90;;;;;;5021980;28;20079;-82
2022/11/15 06:50:56;;;;;;;1999.90;999.90;;;6.40;99.90;;;;;;5009668;28;20114;-79
2022/11/15 06:53:22;;;;;;;1999.90;999.90;;;6.40;99.90;;;;;;5005714;28;20482;-79
2022/11/15 06:55:48;;;;;;;1999.90;999.90;;;6.30;99.90;;;;;;5007858;28;20030;-79
2022/11/15 06:58:13;;;;;;;1999.90;999.90;;;6.40;99.90;;;;;;5004741;28;20548;-80
2022/11/15 07:00:39;;;;;;;1999.90;999.90;;;6.40;99.90;;;;;;5018215;28;20064;-79
2022/11/15 07:03:08;;;;;;;1999.90;999.90;;;6.50;99.90;;;;;;5017629;28;20049;-80
2022/11/15 07:05:34;;;;;;;1999.90;999.90;;;6.50;99.90;;;;;;5010382;28;20590;-80
2022/11/15 07:07:59;;;;;;;1999.90;999.90;;;6.60;99.90;;;;;;5013918;28;20038;-79
2022/11/15 07:10:27;;;;;;;1999.90;999.90;;;6.60;99.90;;;;;;5017899;28;20034;-79
2022/11/15 07:12:53;;;;;;;1999.90;999.90;;;6.60;99.90;;;;;;5016978;28;20767;-79
2022/11/15 07:15:22;;;;;;;1999.90;999.90;;;6.60;99.90;;;;;;5019192;28;20859;-80
2022/11/15 07:17:48;;;;;;;1999.90;999.90;;;6.70;99.90;;;;;;5015358;28;20114;-79
2022/11/15 07:20:15;;;;;;;1999.90;999.90;;;6.70;99.90;;;;;;5016590;28;20504;-79
2022/11/15 07:22:41;;;;;;;1999.90;999.90;;;6.70;99.90;;;;;;5016928;28;20041;-79
2022/11/15 07:25:08;;;;;;;1999.90;999.90;;;6.70;99.90;;;;;;5018533;28;20053;-79
2022/11/15 07:27:33;;;;;;;1999.90;999.90;;;6.70;99.90;;;;;;5019100;28;20026;-80
2022/11/15 07:29:59;;;;;;;1999.90;999.90;;;6.80;99.90;;;;;;5020624;28;20122;-80
2022/11/15 07:32:25;;;;;;;1999.90;999.90;;;6.90;99.90;;;;;;5020969;28;20523;-80
2022/11/15 07:34:51;;;;;;;1999.90;999.90;;;7.00;99.90;;;;;;5015876;28;20026;-80
2022/11/15 07:37:16;;;;;;;1999.90;999.90;;;7.10;99.90;;;;;;5009552;28;20061;-80
2022/11/15 07:39:42;;;;;;;1999.90;999.90;;;7.20;99.90;;;;;;5011095;28;20053;-81
2022/11/15 07:44:52;;;;;;;1999.90;999.90;;;7.30;99.90;;;;;;5007288;28;20030;-81
2022/11/15 07:47:17;;;;;;;1999.90;999.90;;;7.40;99.90;;;;;;5007733;28;20481;-80
2022/11/15 07:49:43;;;;;;;1999.90;999.90;;;7.50;99.90;;;;;;5001701;28;20035;-80
2022/11/15 07:52:09;;;;;;;1999.90;999.90;;;7.50;99.90;;;;;;5007530;28;20046;-81
2022/11/15 07:54:34;;;;;;;1999.90;999.90;;;7.70;99.90;;;;;;5008208;28;20085;-80
2022/11/15 07:57:00;;;;;;;1999.90;999.90;;;7.70;99.90;;;;;;5000236;28;20066;-79
2022/11/15 07:59:25;;;;;;;1999.90;999.90;;;7.90;99.90;;;;;;4997356;28;20484;-79
2022/11/15 08:01:51;;;;;;;1999.90;999.90;;;8.00;99.90;;;;;;4996920;28;20046;-83
2022/11/15 08:04:16;;;;;;;1999.90;999.90;;;8.10;99.90;;;;;;5010041;28;20400;-79
2022/11/15 08:06:42;;;;;;;1999.90;999.90;;;8.20;99.90;;;;;;5016844;28;20065;-80
2022/11/15 08:09:07;;;;;;;1999.90;999.90;;;8.10;99.90;;;;;;5016481;28;20476;-80
2022/11/15 08:11:33;;;;;;;1999.90;999.90;;;8.30;99.90;;;;;;5014859;28;20038;-81
2022/11/15 08:13:59;;;;;;;1999.90;999.90;;;8.40;99.90;;;;;;5006033;28;20038;-80
2022/11/15 08:16:24;;;;;;;1999.90;999.90;;;8.50;99.90;;;;;;5010478;28;20035;-79
2022/11/15 08:18:50;;;;;;;1999.90;999.90;;;8.70;99.90;;;;;;5005150;28;20030;-79
2022/11/15 08:21:19;;;;;;;1999.90;999.90;;;8.80;99.90;;;;;;5015671;28;20041;-79
2022/11/15 08:23:45;;;;;;;1999.90;999.90;;;8.90;99.90;;;;;;5014581;28;20093;-83
2022/11/15 08:26:11;;;;;;;1999.90;999.90;;;9.10;99.90;;;;;;5016384;28;20034;-79
2022/11/15 08:28:36;;;;;;;1999.90;999.90;;;9.20;99.90;;;;;;5016397;28;20042;-79
2022/11/15 08:31:03;;;;;;;1999.90;999.90;;;9.40;99.90;;;;;;5015879;28;20105;-78
2022/11/15 08:33:28;;;;;;;1999.90;999.90;;;9.30;99.90;;;;;;5011234;28;20089;-78
2022/11/15 08:35:58;;;;;;;1999.90;999.90;;;9.30;99.90;;;;;;5001339;28;20118;-79
2022/11/15 08:38:24;;;;;;;1999.90;999.90;;;9.30;99.90;;;;;;5010982;28;20098;-78
2022/11/15 08:41:01;;;;;;;1999.90;999.90;;;9.30;99.90;;;;;;5016970;28;20038;-79
2022/11/15 08:43:27;;;;;;;1999.90;999.90;;;9.40;99.90;;;;;;5015259;28;20035;-79
2022/11/15 08:45:57;;;;;;;1999.90;999.90;;;9.50;99.90;;;;;;5015566;28;20038;-80
2022/11/15 08:48:23;;;;;;;1999.90;999.90;;;9.60;99.90;;;;;;5015204;28;20039;-80
2022/11/15 08:50:48;;;;;;;1999.90;999.90;;;9.80;99.90;;;;;;5014769;28;20026;-80
2022/11/15 08:53:14;;;;;;;1999.90;999.90;;;9.90;99.90;;;;;;5015384;28;20034;-80
2022/11/15 08:55:40;;;;;;;1999.90;999.90;;;10.10;99.90;;;;;;5014654;28;20035;-80
2022/11/15 08:58:06;;;;;;;1999.90;999.90;;;10.30;99.90;;;;;;5016560;28;20081;-80
2022/11/15 09:00:33;;;;;;;1999.90;999.90;;;10.50;99.90;;;;;;5013785;28;20035;-82
2022/11/15 09:02:59;;;;;;;1999.90;999.90;;;10.60;99.90;;;;;;5015747;28;20042;-81
2022/11/15 09:05:25;;;;;;;1999.90;999.90;;;10.70;99.90;;;;;;5015008;28;20583;-82
2022/11/15 09:07:54;;;;;;;1999.90;999.90;;;10.80;99.90;;;;;;5015334;28;20066;-82
2022/11/15 09:10:20;;;;;;;1999.90;999.90;;;11.00;99.90;;;;;;5015053;28;20453;-82
2022/11/15 09:12:48;;;;;;;1999.90;999.90;;;11.10;99.90;;;;;;5014014;28;20045;-81
2022/11/15 09:15:14;;;;;;;1999.90;999.90;;;11.30;99.90;;;;;;5016352;28;20449;-80
2022/11/15 09:17:40;;;;;;;1999.90;999.90;;;11.50;99.90;;;;;;5016635;28;20042;-80
2022/11/15 09:20:07;;;;;;;1999.90;999.90;;;11.80;99.90;;;;;;5014127;28;20037;-78
2022/11/15 09:22:33;;;;;;;1999.90;999.90;;;12.00;99.90;;;;;;5016144;28;20929;-82
2022/11/15 09:24:58;;;;;;;1999.90;999.90;;;11.90;99.90;;;;;;5013810;28;20034;-81
2022/11/15 09:27:28;;;;;;;1999.90;999.90;;;12.20;99.90;;;;;;5014606;28;20483;-80
2022/11/15 09:29:54;;;;;;;1999.90;999.90;;;12.40;99.90;;;;;;5016523;28;20026;-81
2022/11/15 09:32:19;;;;;;;1999.90;999.90;;;12.40;99.90;;;;;;5020863;28;20034;-81
2022/11/15 09:34:45;;;;;;;1999.90;999.90;;;12.50;99.90;;;;;;5020038;28;20042;-82
2022/11/15 09:37:12;;;;;;;1999.90;999.90;;;12.50;99.90;;;;;;5017390;28;20369;-77
2022/11/15 09:39:37;;;;;;;1999.90;999.90;;;12.70;99.90;;;;;;5018410;28;20033;-77
2022/11/15 09:42:21;;;;;;;1999.90;999.90;;;12.90;99.90;;;;;;5018480;28;20416;-77
2022/11/15 09:44:56;;;;;;;1999.90;999.90;;;13.10;99.90;;;;;;5016604;28;20042;-77
2022/11/15 09:47:45;;;;;;;1999.90;999.90;;;13.10;99.90;;;;;;5018614;28;20480;-77
2022/11/15 09:50:14;;;;;;;1999.90;999.90;;;13.10;99.90;;;;;;5017397;28;20045;-77
2022/11/15 09:52:44;;;;;;;1999.90;999.90;;;13.20;99.90;;;;;;5016938;28;20034;-77
2022/11/15 09:55:14;;;;;;;1999.90;999.90;;;13.20;99.90;;;;;;5018697;28;20567;-77
2022/11/15 09:58:24;;;;;;;1999.90;999.90;;;13.20;99.90;;;;;;5018622;28;20038;-77
2022/11/15 10:00:52;;;;;;;1999.90;999.90;;;13.10;99.90;;;;;;5018924;28;20038;-78
2022/11/15 10:03:23;;;;;;;1999.90;999.90;;;13.20;99.90;;;;;;5018911;28;20034;-77
2022/11/15 10:05:54;;;;;;;1999.90;999.90;;;13.20;99.90;;;;;;5018187;28;20110;-77
2022/11/15 10:08:34;;;;;;;1999.90;999.90;;;13.20;99.90;;;;;;5018663;28;20026;-77
2022/11/15 10:11:28;;;;;;;1999.90;999.90;;;13.40;99.90;;;;;;5018021;28;20085;-77
2022/11/15 10:13:57;;;;;;;1999.90;999.90;;;13.30;99.90;;;;;;5020756;28;20189;-77
2022/11/15 10:16:59;;;;;;;1999.90;999.90;;;13.50;99.90;;;;;;5038260;28;20061;-77
2022/11/15 10:19:53;;;;;;;1999.90;999.90;;;13.60;99.90;;;;;;5038669;28;20033;-79
2022/11/15 10:22:22;;;;;;;1999.90;999.90;;;13.70;99.90;;;;;;5036657;28;20030;-79
2022/11/15 10:24:47;;;;;;;1999.90;999.90;;;13.80;99.90;;;;;;5025032;28;20034;-79
2022/11/15 10:27:16;;;;;;;1999.90;999.90;;;13.90;99.90;;;;;;5040304;28;20372;-79
2022/11/15 10:29:49;;;;;;;1999.90;999.90;;;13.90;99.90;;;;;;5039808;28;20040;-79
2022/11/15 10:32:17;;;;;;;1999.90;999.90;;;14.00;99.90;;;;;;5038978;28;20026;-80
2022/11/15 10:34:43;;;;;;;1999.90;999.90;;;13.80;99.90;;;;;;5035818;28;20334;-76
2022/11/15 10:37:09;;;;;;;1999.90;999.90;;;13.80;99.90;;;;;;5037642;28;20034;-77
2022/11/15 10:39:35;;;;;;;1999.90;999.90;;;13.80;99.90;;;;;;5039003;28;20038;-78
2022/11/15 10:42:27;;;;;;;1999.90;999.90;;;13.80;99.90;;;;;;5038821;28;20064;-78
2022/11/15 10:44:53;;;;;;;1999.90;999.90;;;13.80;99.90;;;;;;5039062;28;20125;-79
2022/11/15 10:47:32;;;;;;;1999.90;999.90;;;13.80;99.90;;;;;;5038827;28;20025;-78
2022/11/15 10:49:59;;;;;;;1999.90;999.90;;;13.80;99.90;;;;;;5041046;28;20037;-78
2022/11/15 10:52:25;;;;;;;1999.90;999.90;;;13.80;99.90;;;;;;5039215;28;20041;-77
2022/11/15 10:55:12;;;;;;;1999.90;999.90;;;13.90;99.90;;;;;;5039770;28;20029;-78
2022/11/15 10:57:39;;;;;;;1999.90;999.90;;;13.90;99.90;;;;;;5039930;28;20065;-78
2022/11/15 11:00:36;;;;;;;1999.90;999.90;;;14.00;99.90;;;;;;5046235;28;20056;-75
2022/11/15 11:03:06;;;;;;;1999.90;999.90;;;14.00;99.90;;;;;;5039483;28;20065;-78
2022/11/15 11:05:39;;;;;;;1999.90;999.90;;;13.90;99.90;;;;;;5036807;28;20101;-82
2022/11/15 11:08:07;;;;;;;1999.90;999.90;;;13.80;99.90;;;;;;5037513;28;20034;-81
2022/11/15 11:10:34;;;;;;;1999.90;999.90;;;13.80;99.90;;;;;;5037881;28;20038;-78
2022/11/15 11:13:22;;;;;;;1999.90;999.90;;;13.80;99.90;;;;;;5021576;28;20073;-77
2022/11/15 11:15:54;;;;;;;1999.90;999.90;;;13.90;99.90;;;;;;5038614;23;21040;-79
2022/11/15 11:18:28;;;;;;;1999.90;999.90;;;13.90;99.90;;;;;;5014022;28;20054;-78
2022/11/15 11:21:05;;;;;;;1999.90;999.90;;;13.80;99.90;;;;;;5017644;28;20037;-78
2022/11/15 11:23:37;;;;;;;1999.90;999.90;;;13.80;99.90;;;;;;5017995;28;20038;-78
2022/11/15 11:26:29;;;;;;;1999.90;999.90;;;13.80;99.90;;;;;;5015591;28;20038;-77
2022/11/15 11:29:32;;;;;;;1999.90;999.90;;;13.80;99.90;;;;;;5016414;28;20720;-78
2022/11/15 11:32:26;;;;;;;1999.90;999.90;;;13.80;99.90;;;;;;5003834;28;20595;-78
2022/11/15 11:35:10;;;;;;;1999.90;999.90;;;13.80;99.90;;;;;;5015993;28;20069;-79
2022/11/15 11:37:54;;;;;;;1999.90;999.90;;;13.80;99.90;;;;;;5017122;28;20041;-80
2022/11/15 11:40:40;;;;;;;1999.90;999.90;;;13.80;99.90;;;;;;5017414;28;20043;-80
2022/11/15 11:44:04;;;;;;;1999.90;999.90;;;13.70;99.90;;;;;;5015266;28;20030;-80
2022/11/15 11:46:54;;;;;;;1999.90;999.90;;;13.70;99.90;;;;;;4989115;28;20066;-81
2022/11/15 11:49:35;;;;;;;1999.90;999.90;;;13.70;99.90;;;;;;5015939;28;20540;-79
2022/11/15 11:52:16;;;;;;;1999.90;999.90;;;13.80;99.90;;;;;;5016690;28;20117;-78
2022/11/15 11:54:48;;;;;;;1999.90;999.90;;;14.10;99.90;;;;;;5015489;28;20050;-79
2022/11/15 11:57:37;;;;;;;1999.90;999.90;;;14.30;99.90;;;;;;5015180;28;20565;-77
2022/11/15 12:00:11;;;;;;;1999.90;999.90;;;14.50;99.90;;;;;;5014319;28;20132;-79
2022/11/15 12:02:45;;;;;;;1999.90;999.90;;;14.90;99.90;;;;;;5014668;28;21115;-80
2022/11/15 12:05:36;;;;;;;1999.90;999.90;;;15.10;99.90;;;;;;5013804;28;20034;-79
2022/11/15 12:08:18;;;;;;;1999.90;999.90;;;15.10;99.90;;;;;;5015131;28;20113;-80
2022/11/15 12:10:51;;;;;;;1999.90;999.90;;;15.10;99.90;;;;;;5014660;28;20038;-77
2022/11/15 12:13:24;;;;;;;1999.90;999.90;;;15.20;99.90;;;;;;5014499;28;20046;-77
2022/11/15 12:16:16;;;;;;;1999.90;999.90;;;15.30;99.90;;;;;;5014939;28;20066;-77
2022/11/15 12:18:47;;;;;;;1999.90;999.90;;;15.50;99.90;;;;;;5032949;28;20026;-78
2022/11/15 12:21:47;;;;;;;1999.90;999.90;;;15.60;99.90;;;;;;5019719;28;20527;-77
2022/11/15 12:24:35;;;;;;;1999.90;999.90;;;15.60;99.90;;;;;;5009959;28;20120;-78
2022/11/15 12:27:14;;;;;;;1999.90;999.90;;;15.60;99.90;;;;;;5014866;28;20031;-78
2022/11/15 12:29:48;;;;;;;1999.90;999.90;;;15.50;99.90;;;;;;5014432;28;20046;-77
2022/11/15 12:32:29;;;;;;;1999.90;999.90;;;15.40;99.90;;;;;;5013996;28;20106;-77
2022/11/15 12:34:56;;;;;;;1999.90;999.90;;;15.30;99.90;;;;;;5014730;28;20046;-78
2022/11/15 12:37:40;;;;;;;1999.90;999.90;;;15.40;99.90;;;;;;5013414;28;20054;-78
2022/11/15 12:40:08;;;;;;;1999.90;999.90;;;15.50;99.90;;;;;;5013315;28;20073;-78
2022/11/15 12:43:13;;;;;;;1999.90;999.90;;;15.60;99.90;;;;;;5014677;28;20483;-78
2022/11/15 12:45:41;;;;;;;1999.90;999.90;;;15.70;99.90;;;;;;4991180;28;20048;-77
2022/11/15 12:48:16;;;;;;;1999.90;999.90;;;15.90;99.90;;;;;;5015668;28;20423;-78
2022/11/15 12:50:51;;;;;;;1999.90;999.90;;;15.90;99.90;;;;;;5014909;28;20040;-79
2022/11/15 12:53:23;;;;;;;1999.90;999.90;;;15.80;99.90;;;;;;5013790;28;20093;-79
2022/11/15 12:56:17;;;;;;;1999.90;999.90;;;15.90;99.90;;;;;;5014160;28;20030;-79
2022/11/15 12:58:59;;;;;;;1999.90;999.90;;;15.80;99.90;;;;;;5011769;28;20041;-78
2022/11/15 13:01:33;;;;;;;1999.90;999.90;;;15.90;99.90;;;;;;5013125;28;20101;-78
2022/11/15 13:04:24;;;;;;;1999.90;999.90;;;15.80;99.90;;;;;;5015635;28;20038;-80
2022/11/15 13:06:51;;;;;;;1999.90;999.90;;;15.80;99.90;;;;;;5017307;28;20109;-79
2022/11/15 13:09:28;;;;;;;1999.90;999.90;;;15.60;99.90;;;;;;5017478;28;20034;-79
2022/11/15 13:11:55;;;;;;;1999.90;999.90;;;15.40;99.90;;;;;;5016184;28;20031;-80
2022/11/15 13:14:36;;;;;;;1999.90;999.90;;;15.20;99.90;;;;;;5015487;28;20038;-79
2022/11/15 13:17:21;;;;;;;1999.90;999.90;;;15.20;99.90;;;;;;5014792;28;20409;-79
2022/11/15 13:20:11;;;;;;;1999.90;999.90;;;15.20;99.90;;;;;;5017631;28;20457;-78
2022/11/15 13:22:59;;;;;;;1999.90;999.90;;;15.00;99.90;;;;;;5006600;28;20109;-79
2022/11/15 13:25:42;;;;;;;1999.90;999.90;;;15.00;99.90;;;;;;5016098;28;20037;-80
2022/11/15 13:28:21;;;;;;;1999.90;999.90;;;15.00;99.90;;;;;;5017969;28;20042;-79
2022/11/15 13:30:47;;;;;;;1999.90;999.90;;;15.00;99.90;;;;;;5017800;28;20133;-79
2022/11/15 13:33:31;;;;;;;1999.90;999.90;;;15.00;99.90;;;;;;5016012;28;20125;-79
2022/11/15 13:36:00;;;;;;;1999.90;999.90;;;15.10;99.90;;;;;;5016894;28;20034;-78
2022/11/15 13:38:28;;;;;;;1999.90;999.90;;;15.10;99.90;;;;;;5017052;28;20085;-79
2022/11/15 13:40:55;;;;;;;1999.90;999.90;;;15.10;99.90;;;;;;5015679;28;20121;-79
2022/11/15 13:43:21;;;;;;;1999.90;999.90;;;15.10;99.90;;;;;;5017101;28;20038;-78
2022/11/15 13:46:11;;;;;;;1999.90;999.90;;;15.20;99.90;;;;;;5014825;28;20026;-80
2022/11/15 13:48:38;;;;;;;1999.90;999.90;;;15.20;99.90;;;;;;5017612;28;20073;-79
2022/11/15 13:51:15;;;;;;;1999.90;999.90;;;15.20;99.90;;;;;;5017030;28;20531;-79
2022/11/15 13:53:46;;;;;;;1999.90;999.90;;;15.10;99.90;;;;;;5015698;28;20558;-79
2022/11/15 13:56:13;;;;;;;1999.90;999.90;;;15.10;99.90;;;;;;5015877;28;20041;-79
2022/11/15 13:58:39;;;;;;;1999.90;999.90;;;15.10;99.90;;;;;;5016027;28;20121;-79
2022/11/15 14:01:05;;;;;;;1999.90;999.90;;;15.10;99.90;;;;;;5018665;28;20496;-79
2022/11/15 14:03:34;;;;;;;1999.90;999.90;;;15.20;99.90;;;;;;5016937;28;20027;-79
2022/11/15 14:06:03;;;;;;;1999.90;999.90;;;15.00;99.90;;;;;;5015154;28;20038;-80
2022/11/15 14:08:28;;;;;;;1999.90;999.90;;;15.10;99.90;;;;;;5017107;28;20034;-79
2022/11/15 14:11:16;;;;;;;1999.90;999.90;;;15.00;99.90;;;;;;5017012;28;20039;-80
2022/11/15 14:14:02;;;;;;;1999.90;999.90;;;15.00;99.90;;;;;;5016877;28;20113;-80
2022/11/15 14:16:35;;;;;;;1999.90;999.90;;;14.90;99.90;;;;;;5014900;28;20113;-79
2022/11/15 14:19:02;;;;;;;1999.90;999.90;;;14.80;99.90;;;;;;5016872;28;20046;-79
2022/11/15 14:21:27;;;;;;;1999.90;999.90;;;14.70;99.90;;;;;;5016777;28;20051;-80
2022/11/15 14:24:13;;;;;;;1999.90;999.90;;;14.70;99.90;;;;;;5016999;28;20082;-78
2022/11/15 14:26:38;;;;;;;1999.90;999.90;;;14.60;99.90;;;;;;5016667;28;20038;-78
2022/11/15 14:29:27;;;;;;;1999.90;999.90;;;14.40;99.90;;;;;;5016804;28;20039;-80
2022/11/15 14:32:20;;;;;;;1999.90;999.90;;;14.30;99.90;;;;;;5016944;28;20031;-78
2022/11/15 14:34:47;;;;;;;1999.90;999.90;;;14.20;99.90;;;;;;5017264;28;20070;-78
2022/11/15 14:37:20;;;;;;;1999.90;999.90;;;14.20;99.90;;;;;;5016608;28;20034;-78
2022/11/15 14:39:46;;;;;;;1999.90;999.90;;;14.10;99.90;;;;;;5016093;28;20022;-80
2022/11/15 14:42:12;;;;;;;1999.90;999.90;;;14.10;99.90;;;;;;5017729;28;20111;-77
2022/11/15 14:44:37;;;;;;;1999.90;999.90;;;14.20;99.90;;;;;;5017047;28;20117;-79
2022/11/15 14:47:03;;;;;;;1999.90;999.90;;;14.10;99.90;;;;;;5015016;28;20058;-78
2022/11/15 14:49:28;;;;;;;1999.90;999.90;;;14.10;99.90;;;;;;5016151;28;20076;-78
2022/11/15 14:51:54;;;;;;;1999.90;999.90;;;14.00;99.90;;;;;;5018462;28;20026;-79
2022/11/15 14:54:19;;;;;;;1999.90;999.90;;;13.90;99.90;;;;;;5020875;28;20038;-78
2022/11/15 14:56:45;;;;;;;1999.90;999.90;;;13.90;99.90;;;;;;5018589;28;20045;-78
2022/11/15 14:59:10;;;;;;;1999.90;999.90;;;13.80;99.90;;;;;;5015605;28;20041;-78
2022/11/15 15:01:36;;;;;;;1999.90;999.90;;;13.70;99.90;;;;;;5016839;28;20026;-79
2022/11/15 15:04:01;;;;;;;1999.90;999.90;;;13.60;99.90;;;;;;5017008;28;20045;-79
2022/11/15 15:06:27;;;;;;;1999.90;999.90;;;13.60;99.90;;;;;;5015144;28;20038;-77
2022/11/15 15:08:53;;;;;;;1999.90;999.90;;;13.50;99.90;;;;;;5015599;28;20038;-77
2022/11/15 15:11:23;;;;;;;1999.90;999.90;;;13.40;99.90;;;;;;5015841;28;20114;-76
2022/11/15 15:13:49;;;;;;;1999.90;999.90;;;13.40;99.90;;;;;;5015850;28;20038;-76
2022/11/15 15:16:15;;;;;;;1999.90;999.90;;;13.30;99.90;;;;;;5015304;28;20487;-77
2022/11/15 15:18:40;;;;;;;1999.90;999.90;;;13.30;99.90;;;;;;5016858;28;20049;-78
2022/11/15 15:21:27;;;;;;;1999.90;999.90;;;13.10;99.90;;;;;;5016051;28;20042;-80
2022/11/15 15:23:56;;;;;;;1999.90;999.90;;;13.00;99.90;;;;;;5014747;28;20500;-80
2022/11/15 15:26:25;;;;;;;1999.90;999.90;;;13.00;99.90;;;;;;5015513;28;20034;-83
2022/11/15 15:28:51;;;;;;;1999.90;999.90;;;12.90;99.90;;;;;;5016293;28;20039;-77
2022/11/15 15:31:18;;;;;;;1999.90;999.90;;;12.90;99.90;;;;;;5017299;28;20037;-78
2022/11/15 15:33:44;;;;;;;1999.90;999.90;;;12.90;99.90;;;;;;5014412;28;20034;-77
2022/11/15 15:36:16;;;;;;;1999.90;999.90;;;12.80;99.90;;;;;;5014905;28;20518;-77
2022/11/15 15:38:42;;;;;;;1999.90;999.90;;;12.80;99.90;;;;;;5013978;28;20030;-77
2022/11/15 15:41:10;;;;;;;1999.90;999.90;;;12.70;99.90;;;;;;5015110;28;20038;-77
2022/11/15 15:43:35;;;;;;;1999.90;999.90;;;12.60;99.90;;;;;;5012728;28;20069;-77
2022/11/15 15:46:01;;;;;;;1999.90;999.90;;;12.50;99.90;;;;;;5013516;28;20058;-77
2022/11/15 15:48:26;;;;;;;1999.90;999.90;;;12.40;99.90;;;;;;5014366;28;20124;-77
2022/11/15 15:50:52;;;;;;;1999.90;999.90;;;12.50;99.90;;;;;;5015182;28;20093;-77
2022/11/15 15:53:18;;;;;;;1999.90;999.90;;;12.40;99.90;;;;;;5014590;28;20030;-76
2022/11/15 15:55:43;;;;;;;1999.90;999.90;;;12.30;99.90;;;;;;5014423;28;20038;-77
2022/11/15 15:58:09;;;;;;;1999.90;999.90;;;12.30;99.90;;;;;;5014666;28;20048;-76
2022/11/15 16:00:34;;;;;;;1999.90;999.90;;;12.40;99.90;;;;;;5014655;28;20038;-76
2022/11/15 16:03:00;;;;;;;1999.90;999.90;;;12.50;99.90;;;;;;5013374;28;20038;-79
2022/11/15 16:05:25;;;;;;;1999.90;999.90;;;12.50;99.90;;;;;;5013889;28;20073;-76
2022/11/15 16:07:51;;;;;;;1999.90;999.90;;;12.50;99.90;;;;;;5014545;28;20038;-75
2022/11/15 16:10:25;;;;;;;1999.90;999.90;;;12.50;99.90;;;;;;5014321;28;20034;-76
2022/11/15 16:12:52;;;;;;;1999.90;999.90;;;12.50;99.90;;;;;;5011398;28;20038;-76
2022/11/15 16:15:19;;;;;;;1999.90;999.90;;;12.50;99.90;;;;;;5007503;28;20034;-76
2022/11/15 16:17:49;;;;;;;1999.90;999.90;;;12.40;99.90;;;;;;5013820;28;20034;-76
2022/11/15 16:20:42;;;;;;;1999.90;999.90;;;12.30;99.90;;;;;;5012371;28;20475;-77
2022/11/15 16:23:14;;;;;;;1999.90;999.90;;;12.30;99.90;;;;;;5033141;28;20080;-76
2022/11/15 16:25:50;;;;;;;1999.90;999.90;;;12.20;99.90;;;;;;5019923;28;20045;-78
2022/11/15 16:28:27;;;;;;;1999.90;999.90;;;12.30;99.90;;;;;;5012312;28;20031;-79
2022/11/15 16:31:09;;;;;;;1999.90;999.90;;;12.20;99.90;;;;;;5009873;28;20030;-77
2022/11/15 16:33:35;;;;;;;1999.90;999.90;;;12.20;99.90;;;;;;5029125;28;20084;-78
2022/11/15 16:36:02;;;;;;;1999.90;999.90;;;12.20;99.90;;;;;;5034325;28;20053;-77
2022/11/15 16:38:28;;;;;;;1999.90;999.90;;;12.10;99.90;;;;;;5033252;28;20034;-77
2022/11/15 16:40:54;;;;;;;1999.90;999.90;;;12.10;99.90;;;;;;5033889;28;20034;-77
2022/11/15 16:43:19;;;;;;;1999.90;999.90;;;12.10;99.90;;;;;;5033763;28;20042;-77
2022/11/15 16:45:45;;;;;;;1999.90;999.90;;;12.10;99.90;;;;;;5033936;28;20026;-77
2022/11/15 16:48:21;;;;;;;1999.90;999.90;;;12.10;99.90;;;;;;5032759;28;20132;-77
2022/11/15 16:50:47;;;;;;;1999.90;999.90;;;12.10;99.90;;;;;;5037572;28;20030;-77
2022/11/15 16:53:13;;;;;;;1999.90;999.90;;;12.10;99.90;;;;;;5037264;28;20034;-77
2022/11/15 16:55:38;;;;;;;1999.90;999.90;;;12.10;99.90;;;;;;5034971;28;20483;-77
2022/11/15 16:58:04;;;;;;;1999.90;999.90;;;12.10;99.90;;;;;;5037818;28;20041;-77
2022/11/15 17:00:29;;;;;;;1999.90;999.90;;;12.00;99.90;;;;;;5042304;28;20030;-78
2022/11/15 17:02:55;;;;;;;1999.90;999.90;;;12.00;99.90;;;;;;5045501;28;20042;-77
2022/11/15 17:05:22;;;;;;;1999.90;999.90;;;12.00;99.90;;;;;;5042771;28;20030;-78
2022/11/15 17:07:51;;;;;;;1999.90;999.90;;;11.90;99.90;;;;;;5036799;28;20148;-78
2022/11/15 17:10:17;;;;;;;1999.90;999.90;;;11.90;99.90;;;;;;5030655;28;20029;-78
2022/11/15 17:12:42;;;;;;;1999.90;999.90;;;11.80;99.90;;;;;;5024701;28;20041;-80
2022/11/15 17:15:11;;;;;;;1999.90;999.90;;;11.70;99.90;;;;;;5013693;28;20065;-77
2022/11/15 17:17:37;;;;;;;1999.90;999.90;;;11.70;99.90;;;;;;5012272;28;20097;-77
2022/11/15 17:20:04;;;;;;;1999.90;999.90;;;11.70;99.90;;;;;;5013415;28;20444;-76
2022/11/15 17:22:30;;;;;;;1999.90;999.90;;;11.70;99.90;;;;;;5013365;28;20026;-77
2022/11/15 17:24:55;;;;;;;1999.90;999.90;;;11.70;99.90;;;;;;5011729;28;20412;-78